sensor_id;sensor_type;location;lat;lon;timestamp;pressure;altitude;pressure_sealevel;temperature;humidity
30338;BME280;17143;51.888;5.408;2023-04-25T00:02:03;100917.94;;;6.72;100.00
30338;BME280;17143;51.888;5.408;2023-04-25T00:17:05;100927.31;;;6.58;100.00
30338;BME280;17143;51.888;5.408;2023-04-25T00:32:07;100936.38;;;6.40;100.00
30338;BME280;17143;51.888;5.408;2023-04-25T00:47:10;100947.41;;;6.26;100.00
30338;BME280;17143;51.888;5.408;2023-04-25T01:02:13;100948.75;;;6.21;100.00
30338;BME280;17143;51.888;5.408;2023-04-25T01:17:15;100944.94;;;6.16;100.00
30338;BME280;17143;51.888;5.408;2023-04-25T01:32:18;100967.66;;;5.97;100.00
30338;BME280;17143;51.888;5.408;2023-04-25T01:47:20;100975.47;;;5.75;100.00
30338;BME280;17143;51.888;5.408;2023-04-25T02:02:22;100981.97;;;5.59;100.00
30338;BME280;17143;51.888;5.408;2023-04-25T02:17:24;101004.03;;;5.43;100.00
30338;BME280;17143;51.888;5.408;2023-04-25T02:32:26;101004.78;;;5.31;100.00
30338;BME280;17143;51.888;5.408;2023-04-25T02:47:29;101004.88;;;5.21;100.00
30338;BME280;17143;51.888;5.408;2023-04-25T03:02:31;101006.31;;;5.17;100.00
30338;BME280;17143;51.888;5.408;2023-04-25T03:17:33;101007.81;;;5.25;100.00
30338;BME280;17143;51.888;5.408;2023-04-25T03:32:35;101015.78;;;5.28;100.00
30338;BME280;17143;51.888;5.408;2023-04-25T03:47:37;101011.09;;;5.34;100.00
30338;BME280;17143;51.888;5.408;2023-04-25T04:02:40;101033.78;;;5.38;100.00
30338;BME280;17143;51.888;5.408;2023-04-25T04:17:43;101036.03;;;5.45;100.00
30338;BME280;17143;51.888;5.408;2023-04-25T04:32:45;101053.28;;;5.57;100.00
30338;BME280;17143;51.888;5.408;2023-04-25T04:47:47;101067.41;;;5.72;100.00
30338;BME280;17143;51.888;5.408;2023-04-25T05:03:18;101078.41;;;5.81;100.00
30338;BME280;17143;51.888;5.408;2023-04-25T05:18:53;101105.94;;;6.02;100.00
30338;BME280;17143;51.888;5.408;2023-04-25T05:34:18;101114.41;;;6.23;100.00
30338;BME280;17143;51.888;5.408;2023-04-25T05:49:31;101129.97;;;7.52;100.00
30338;BME280;17143;51.888;5.408;2023-04-25T06:04:53;101144.63;;;7.40;100.00
30338;BME280;17143;51.888;5.408;2023-04-25T06:19:55;101150.56;;;8.36;100.00
30338;BME280;17143;51.888;5.408;2023-04-25T06:34:57;101162.00;;;9.70;98.70
30338;BME280;17143;51.888;5.408;2023-04-25T06:49:59;101180.47;;;9.75;93.26
30338;BME280;17143;51.888;5.408;2023-04-25T07:05:01;101204.25;;;9.94;88.42
30338;BME280;17143;51.888;5.408;2023-04-25T07:20:05;101203.28;;;11.98;84.72
30338;BME280;17143;51.888;5.408;2023-04-25T07:35:08;101215.34;;;15.41;67.71
30338;BME280;17143;51.888;5.408;2023-04-25T07:50:11;101239.56;;;11.78;73.36
30338;BME280;17143;51.888;5.408;2023-04-25T08:05:13;101245.97;;;11.53;73.69
30338;BME280;17143;51.888;5.408;2023-04-25T08:20:17;101276.13;;;11.48;76.51
30338;BME280;17143;51.888;5.408;2023-04-25T08:35:20;101288.69;;;10.68;77.69
30338;BME280;17143;51.888;5.408;2023-04-25T08:50:23;101325.22;;;10.82;73.77
30338;BME280;17143;51.888;5.408;2023-04-25T09:05:28;101330.66;;;13.84;68.80
30338;BME280;17143;51.888;5.408;2023-04-25T09:20:30;101349.78;;;15.53;62.26
30338;BME280;17143;51.888;5.408;2023-04-25T09:35:36;101375.47;;;12.58;59.90
30338;BME280;17143;51.888;5.408;2023-04-25T09:50:40;101387.00;;;15.23;57.69
30338;BME280;17143;51.888;5.408;2023-04-25T10:05:46;101387.44;;;13.02;57.33
30338;BME280;17143;51.888;5.408;2023-04-25T10:20:50;101392.31;;;13.44;59.65
30338;BME280;17143;51.888;5.408;2023-04-25T10:35:52;101406.22;;;12.95;63.86
30338;BME280;17143;51.888;5.408;2023-04-25T10:51:08;101429.25;;;12.08;70.24
30338;BME280;17143;51.888;5.408;2023-04-25T11:06:17;101438.47;;;12.63;64.28
30338;BME280;17143;51.888;5.408;2023-04-25T11:21:22;101431.94;;;13.68;59.11
30338;BME280;17143;51.888;5.408;2023-04-25T11:36:24;101436.06;;;14.32;57.18
30338;BME280;17143;51.888;5.408;2023-04-25T11:51:27;101439.56;;;14.87;54.66
30338;BME280;17143;51.888;5.408;2023-04-25T12:06:29;101454.41;;;13.98;58.07
30338;BME280;17143;51.888;5.408;2023-04-25T12:21:32;101476.59;;;12.90;62.73
30338;BME280;17143;51.888;5.408;2023-04-25T12:36:34;101463.84;;;14.12;62.91
30338;BME280;17143;51.888;5.408;2023-04-25T12:51:36;101501.44;;;14.30;59.24
30338;BME280;17143;51.888;5.408;2023-04-25T13:06:38;101516.31;;;12.68;62.81
30338;BME280;17143;51.888;5.408;2023-04-25T13:21:40;101503.47;;;12.88;64.38
30338;BME280;17143;51.888;5.408;2023-04-25T13:36:42;101493.78;;;13.99;55.51
30338;BME280;17143;51.888;5.408;2023-04-25T13:51:45;101482.09;;;13.59;53.41
30338;BME280;17143;51.888;5.408;2023-04-25T14:06:47;101498.59;;;14.42;56.37
30338;BME280;17143;51.888;5.408;2023-04-25T14:21:49;101506.06;;;13.51;49.62
30338;BME280;17143;51.888;5.408;2023-04-25T14:36:51;101497.97;;;13.62;49.90
30338;BME280;17143;51.888;5.408;2023-04-25T14:51:53;101514.19;;;14.23;58.08
30338;BME280;17143;51.888;5.408;2023-04-25T15:06:55;101519.47;;;13.73;56.47
30338;BME280;17143;51.888;5.408;2023-04-25T15:21:57;101554.78;;;12.40;63.19
30338;BME280;17143;51.888;5.408;2023-04-25T15:37:00;101562.34;;;12.21;61.77
30338;BME280;17143;51.888;5.408;2023-04-25T15:52:02;101560.50;;;12.78;57.43
30338;BME280;17143;51.888;5.408;2023-04-25T16:07:04;101567.81;;;13.00;54.87
30338;BME280;17143;51.888;5.408;2023-04-25T16:22:06;101571.50;;;12.58;55.74
30338;BME280;17143;51.888;5.408;2023-04-25T16:37:08;101588.25;;;11.89;58.64
30338;BME280;17143;51.888;5.408;2023-04-25T16:52:11;101600.16;;;11.43;61.68
30338;BME280;17143;51.888;5.408;2023-04-25T17:07:13;101584.56;;;11.57;61.84
30338;BME280;17143;51.888;5.408;2023-04-25T17:22:15;101621.31;;;11.47;61.29
30338;BME280;17143;51.888;5.408;2023-04-25T17:37:17;101629.97;;;11.33;60.90
30338;BME280;17143;51.888;5.408;2023-04-25T17:52:19;101631.22;;;10.99;62.53
30338;BME280;17143;51.888;5.408;2023-04-25T18:07:21;101633.56;;;10.68;62.97
30338;BME280;17143;51.888;5.408;2023-04-25T18:22:23;101654.91;;;10.63;62.68
30338;BME280;17143;51.888;5.408;2023-04-25T18:37:25;101663.84;;;10.28;63.34
30338;BME280;17143;51.888;5.408;2023-04-25T18:52:27;101676.75;;;10.02;64.71
30338;BME280;17143;51.888;5.408;2023-04-25T19:07:29;101702.22;;;9.58;67.82
30338;BME280;17143;51.888;5.408;2023-04-25T19:22:31;101707.19;;;9.07;71.02
30338;BME280;17143;51.888;5.408;2023-04-25T19:37:33;101719.91;;;8.70;72.14
30338;BME280;17143;51.888;5.408;2023-04-25T19:52:35;101722.81;;;8.51;72.74
30338;BME280;17143;51.888;5.408;2023-04-25T20:07:37;101733.78;;;8.25;74.29
30338;BME280;17143;51.888;5.408;2023-04-25T20:22:39;101739.75;;;8.03;75.76
30338;BME280;17143;51.888;5.408;2023-04-25T20:37:41;101743.25;;;7.81;77.70
30338;BME280;17143;51.888;5.408;2023-04-25T20:52:43;101755.47;;;7.51;78.83
30338;BME280;17143;51.888;5.408;2023-04-25T21:07:45;101748.16;;;7.35;80.75
30338;BME280;17143;51.888;5.408;2023-04-25T21:22:48;101734.47;;;7.16;81.67
30338;BME280;17143;51.888;5.408;2023-04-25T21:37:51;101752.78;;;6.97;82.62
30338;BME280;17143;51.888;5.408;2023-04-25T21:52:53;101762.69;;;6.71;83.65
30338;BME280;17143;51.888;5.408;2023-04-25T22:07:55;101760.97;;;6.51;84.80
30338;BME280;17143;51.888;5.408;2023-04-25T22:22:57;101772.38;;;6.33;86.55
30338;BME280;17143;51.888;5.408;2023-04-25T22:37:59;101776.25;;;6.18;87.56
30338;BME280;17143;51.888;5.408;2023-04-25T22:53:01;101782.28;;;5.98;89.67
30338;BME280;17143;51.888;5.408;2023-04-25T23:08:03;101799.44;;;5.88;90.80
30338;BME280;17143;51.888;5.408;2023-04-25T23:23:05;101798.63;;;5.79;90.66
30338;BME280;17143;51.888;5.408;2023-04-25T23:38:07;101792.09;;;5.64;91.76
30338;BME280;17143;51.888;5.408;2023-04-25T23:53:09;101786.81;;;5.43;92.62
